Time;durP1;ratioP1;P1;durP2;ratioP2;P2;SDS_P1;SDS_P2;PMS_P1;PMS_P2;Temp;Humidity;BMP_temperature;BMP_pressure;BME280_temperature;BME280_humidity;BME280_pressure;Samples;Min_cycle;Max_cycle;Signal;HPM_P1;HPM_P2
2023/05/02 00:01:21;;;;;;;7.45;4.00;;;;;;;10.35;100.00;100666.66;6251532;28;20045;-89
2023/05/02 00:04:23;;;;;;;6.13;4.03;;;;;;;10.32;100.00;100666.91;6249361;28;20045;-89
2023/05/02 00:07:25;;;;;;;9.00;4.45;;;;;;;10.32;100.00;100671.25;6254325;28;20049;-89
2023/05/02 00:10:27;;;;;;;6.63;4.45;;;;;;;10.33;100.00;100667.72;6258185;28;20048;-89
2023/05/02 00:13:29;;;;;;;6.68;4.45;;;;;;;10.38;100.00;100664.78;6249808;28;20049;-90
2023/05/02 00:16:31;;;;;;;6.47;3.85;;;;;;;10.37;100.00;100666.56;6258642;28;20114;-89
2023/05/02 00:19:37;;;;;;;6.97;4.22;;;;;;;10.38;100.00;100665.59;6260767;28;20715;-90
2023/05/02 00:22:39;;;;;;;7.10;4.07;;;;;;;10.39;100.00;100669.03;6273362;28;20076;-89
2023/05/02 00:25:47;;;;;;;9.05;4.18;;;;;;;10.35;100.00;100663.25;6274494;28;20040;-89
2023/05/02 00:28:48;;;;;;;6.57;4.00;;;;;;;10.32;100.00;100666.09;6261277;28;20041;-90
2023/05/02 00:31:50;;;;;;;6.60;4.30;;;;;;;10.30;100.00;100661.00;6254323;28;20194;-90
2023/05/02 00:34:52;;;;;;;7.35;4.50;;;;;;;10.34;100.00;100670.19;6260455;28;20643;-90
2023/05/02 00:37:54;;;;;;;6.05;3.83;;;;;;;10.36;100.00;100667.50;6252164;28;20107;-89
2023/05/02 00:40:55;;;;;;;5.43;3.88;;;;;;;10.32;100.00;100677.25;6261870;28;20047;-90
2023/05/02 00:43:57;;;;;;;5.88;4.03;;;;;;;10.27;100.00;100676.75;6260796;28;20053;-90
2023/05/02 00:47:00;;;;;;;7.30;3.95;;;;;;;10.28;100.00;100675.00;6253084;28;20091;-90
2023/05/02 00:50:04;;;;;;;7.10;4.07;;;;;;;10.29;100.00;100677.50;6261067;28;20052;-90
2023/05/02 00:53:08;;;;;;;6.43;4.57;;;;;;;10.30;100.00;100671.34;6262485;28;20064;-89
2023/05/02 00:56:10;;;;;;;8.38;4.18;;;;;;;10.30;100.00;100665.38;6257737;28;20110;-90
2023/05/02 00:59:13;;;;;;;7.32;4.07;;;;;;;10.29;100.00;100669.72;6260138;28;20037;-90
2023/05/02 01:02:17;;;;;;;6.88;4.28;;;;;;;10.30;100.00;100670.53;6262667;28;20053;-91
2023/05/02 01:05:38;;;;;;;7.15;4.25;;;;;;;10.30;100.00;100671.34;6260073;28;20439;-90
2023/05/02 01:08:54;;;;;;;6.97;3.72;;;;;;;10.30;100.00;100673.94;6257698;28;20045;-91
2023/05/02 01:12:11;;;;;;;8.25;4.57;;;;;;;10.33;100.00;100672.88;6248472;28;20064;-90
2023/05/02 01:15:21;;;;;;;5.78;4.40;;;;;;;10.38;100.00;100665.59;6251213;28;20499;-90
2023/05/02 01:18:25;;;;;;;6.50;4.82;;;;;;;10.37;100.00;100671.72;6256792;28;20161;-91
2023/05/02 01:21:27;;;;;;;8.45;4.85;;;;;;;10.45;100.00;100677.13;6258737;28;20062;-91
2023/05/02 01:24:35;;;;;;;6.72;4.90;;;;;;;10.39;100.00;100677.63;6261989;28;20052;-91
2023/05/02 01:28:14;;;;;;;7.43;5.18;;;;;;;10.40;100.00;100678.44;6262099;28;20483;-91
2023/05/02 01:31:17;;;;;;;8.95;6.03;;;;;;;10.42;100.00;100689.50;6251458;28;20049;-91
2023/05/02 01:34:20;;;;;;;10.38;6.00;;;;;;;10.44;100.00;100698.78;6259848;28;20049;-91
2023/05/02 01:37:23;;;;;;;10.50;7.05;;;;;;;10.50;100.00;100694.91;6262163;28;20037;-91
2023/05/02 01:40:25;;;;;;;13.55;7.70;;;;;;;10.51;100.00;100692.22;6259135;28;20110;-91
2023/05/02 01:43:27;;;;;;;15.10;8.15;;;;;;;10.52;100.00;100690.44;6243546;28;20049;-91
2023/05/02 01:46:39;;;;;;;20.90;8.77;;;;;;;10.52;100.00;100693.03;6259009;28;20045;-91
2023/05/02 01:49:42;;;;;;;15.35;8.57;;;;;;;10.51;100.00;100701.75;6262314;28;20112;-91
2023/05/02 01:52:48;;;;;;;14.00;8.40;;;;;;;10.45;100.00;100699.63;6259577;28;20496;-91
2023/05/02 01:55:53;;;;;;;13.25;8.63;;;;;;;10.43;100.00;100709.25;6258869;28;20452;-92
2023/05/02 01:58:55;;;;;;;11.10;7.43;;;;;;;10.39;100.00;100713.03;6260980;28;20029;-92
2023/05/02 02:02:00;;;;;;;15.70;8.50;;;;;;;10.29;100.00;100711.13;6260221;28;20037;-92
2023/05/02 02:05:07;;;;;;;12.43;8.93;;;;;;;10.29;100.00;100707.72;6242565;28;20045;-91
2023/05/02 02:08:10;;;;;;;18.75;9.07;;;;;;;10.26;100.00;100708.75;6257984;28;20560;-92
2023/05/02 02:11:15;;;;;;;17.23;9.82;;;;;;;10.18;100.00;100711.06;6257579;28;20052;-92
2023/05/02 02:14:21;;;;;;;19.58;11.30;;;;;;;10.18;100.00;100726.56;6272139;28;20347;-92
2023/05/02 02:17:28;;;;;;;15.30;9.88;;;;;;;10.21;100.00;100712.59;6258991;28;20076;-92
2023/05/02 02:20:31;;;;;;;18.73;10.45;;;;;;;10.23;100.00;100718.47;6260263;28;20045;-92
2023/05/02 02:23:35;;;;;;;18.73;11.20;;;;;;;10.26;100.00;100724.25;6257055;28;20040;-92
2023/05/02 02:26:38;;;;;;;18.85;11.10;;;;;;;10.33;100.00;100724.63;6259164;28;20504;-92
2023/05/02 02:29:42;;;;;;;17.23;11.23;;;;;;;10.37;100.00;100727.84;6261041;28;20052;-93
2023/05/02 02:32:45;;;;;;;16.25;10.75;;;;;;;10.33;100.00;100729.81;6241658;28;20824;-93
2023/05/02 02:35:52;;;;;;;19.05;11.55;;;;;;;10.41;100.00;100730.09;6243704;28;20562;-93
2023/05/02 02:39:01;;;;;;;17.40;12.60;;;;;;;10.41;100.00;100735.25;6258093;28;20055;-93
2023/05/02 02:42:24;;;;;;;22.73;13.10;;;;;;;10.42;100.00;100731.72;6260326;28;20041;-93
2023/05/02 02:45:56;;;;;;;22.30;13.25;;;;;;;10.50;100.00;100749.25;6261582;28;20049;-93
2023/05/02 02:49:23;;;;;;;22.55;13.05;;;;;;;10.45;100.00;100748.78;6246081;28;20044;-93
2023/05/02 02:52:57;;;;;;;23.02;13.57;;;;;;;10.46;100.00;100755.59;6260384;28;20053;-93
2023/05/02 02:56:12;;;;;;;26.45;14.40;;;;;;;10.45;100.00;100753.97;6258168;28;20044;-92
2023/05/02 02:59:19;;;;;;;22.73;13.55;;;;;;;10.50;100.00;100757.84;6275009;28;20060;-93
2023/05/02 03:02:28;;;;;;;21.48;13.15;;;;;;;10.44;100.00;100773.84;6249748;28;20053;-93
2023/05/02 03:05:32;;;;;;;21.45;12.85;;;;;;;10.38;100.00;100771.69;6253193;28;20080;-94
2023/05/02 03:08:47;;;;;;;25.50;15.45;;;;;;;10.39;100.00;100765.59;6258103;28;20598;-94
2023/05/02 03:11:53;;;;;;;21.23;14.20;;;;;;;10.35;100.00;100770.16;6259789;28;20076;-94
2023/05/02 03:15:17;;;;;;;26.70;14.30;;;;;;;10.41;100.00;100779.25;6258185;28;20049;-93
2023/05/02 03:18:19;;;;;;;21.45;13.30;;;;;;;10.43;100.00;100779.94;6243564;28;20048;-94
2023/05/02 03:21:21;;;;;;;23.08;14.05;;;;;;;10.43;100.00;100777.34;6257881;28;20064;-94
2023/05/02 03:24:26;;;;;;;25.67;13.98;;;;;;;10.40;100.00;100785.34;6246616;28;20057;-94
2023/05/02 03:27:28;;;;;;;23.80;13.80;;;;;;;10.36;100.00;100783.94;6259039;28;20128;-94
2023/05/02 03:30:30;;;;;;;18.52;12.23;;;;;;;10.39;100.00;100785.47;6241821;28;20049;-94
2023/05/02 03:33:32;;;;;;;23.75;13.35;;;;;;;10.43;100.00;100792.88;6259584;28;20048;-94
2023/05/02 03:36:34;;;;;;;18.85;11.63;;;;;;;10.41;100.00;100793.94;6259507;28;20582;-94
2023/05/02 03:39:36;;;;;;;18.90;11.30;;;;;;;10.34;100.00;100788.41;6260019;28;20040;-93
2023/05/02 03:42:41;;;;;;;23.17;11.93;;;;;;;10.32;100.00;100795.44;6260098;28;20460;-93
2023/05/02 03:45:54;;;;;;;19.95;11.82;;;;;;;10.40;100.00;100800.06;6265190;28;20060;-94
2023/05/02 03:48:57;;;;;;;23.88;12.27;;;;;;;10.41;100.00;100793.94;6258223;28;20053;-93
2023/05/02 03:51:59;;;;;;;21.20;11.85;;;;;;;10.44;100.00;100810.06;6260206;28;20048;-93
2023/05/02 03:55:06;;;;;;;21.38;12.50;;;;;;;10.37;100.00;100803.69;6258931;28;20298;-93
2023/05/02 03:58:09;;;;;;;19.88;11.48;;;;;;;10.43;100.00;100810.19;6261337;28;20056;-93
2023/05/02 04:01:18;;;;;;;22.25;11.88;;;;;;;10.41;100.00;100812.03;6242626;28;20041;-93
2023/05/02 04:04:23;;;;;;;18.75;10.82;;;;;;;10.48;100.00;100811.50;6247245;28;20474;-94
2023/05/02 04:07:27;;;;;;;19.27;11.25;;;;;;;10.46;100.00;100812.53;6254416;28;20049;-94
2023/05/02 04:10:33;;;;;;;22.08;11.90;;;;;;;10.46;100.00;100822.88;6256839;28;20052;-94
2023/05/02 04:13:38;;;;;;;20.60;11.38;;;;;;;10.43;100.00;100820.53;6259404;28;20041;-94
2023/05/02 04:16:40;;;;;;;17.33;10.77;;;;;;;10.50;100.00;100829.50;6258061;28;20041;-94
2023/05/02 04:19:43;;;;;;;23.90;12.00;;;;;;;10.50;100.00;100835.50;6259762;28;20182;-94
2023/05/02 04:22:46;;;;;;;21.42;11.32;;;;;;;10.61;100.00;100839.03;6233993;28;20530;-94
2023/05/02 04:25:53;;;;;;;25.25;13.00;;;;;;;10.51;100.00;100844.09;6272130;28;20047;-93
2023/05/02 04:28:58;;;;;;;22.13;11.85;;;;;;;10.44;100.00;100853.25;6265985;28;20041;-93
2023/05/02 04:32:00;;;;;;;21.90;12.10;;;;;;;10.33;100.00;100852.28;6261323;28;20449;-93
2023/05/02 04:35:04;;;;;;;22.85;12.32;;;;;;;10.30;100.00;100857.66;6261618;28;20549;-94
2023/05/02 04:38:07;;;;;;;22.83;12.20;;;;;;;10.26;100.00;100871.72;6259876;28;20518;-94
2023/05/02 04:41:10;;;;;;;23.27;12.88;;;;;;;10.17;100.00;100871.56;6258618;28;20518;-94
2023/05/02 04:44:17;;;;;;;22.08;12.32;;;;;;;10.22;100.00;100872.88;6259197;28;20057;-94
2023/05/02 04:47:19;;;;;;;23.02;11.32;;;;;;;10.24;100.00;100877.97;6258508;28;20053;-94
2023/05/02 04:50:21;;;;;;;15.57;9.40;;;;;;;10.22;100.00;100890.16;6251593;28;20514;-93
2023/05/02 04:53:23;;;;;;;15.07;9.02;;;;;;;10.33;100.00;100888.50;6258976;28;20041;-93
2023/05/02 04:56:25;;;;;;;15.57;9.27;;;;;;;10.29;100.00;100899.19;6258510;28;20071;-93
2023/05/02 04:59:28;;;;;;;16.08;9.63;;;;;;;10.20;100.00;100905.78;6244971;28;20037;-93
2023/05/02 05:02:31;;;;;;;17.10;8.93;;;;;;;10.14;100.00;100916.59;6262476;28;20041;-93
2023/05/02 05:05:33;;;;;;;16.38;8.93;;;;;;;10.12;100.00;100914.09;6262251;28;20049;-92
2023/05/02 05:08:36;;;;;;;16.98;8.05;;;;;;;9.95;100.00;100917.03;6258813;28;20480;-93
2023/05/02 05:11:38;;;;;;;16.77;8.52;;;;;;;9.91;100.00;100920.78;6264098;28;20045;-93
2023/05/02 05:14:41;;;;;;;15.85;9.10;;;;;;;9.91;100.00;100921.63;6264725;28;20143;-92
2023/05/02 05:17:43;;;;;;;13.30;8.63;;;;;;;9.92;100.00;100937.94;6262749;28;20041;-92
2023/05/02 05:20:44;;;;;;;16.50;9.30;;;;;;;9.91;100.00;100944.03;6262998;28;20210;-93
2023/05/02 05:23:47;;;;;;;15.57;5.38;;;;;;;9.89;100.00;100953.69;6260114;28;20049;-92
2023/05/02 05:26:55;;;;;;;4.40;3.20;;;;;;;9.57;100.00;100974.81;6262499;28;20041;-92
2023/05/02 05:29:57;;;;;;;4.45;2.85;;;;;;;9.41;100.00;100971.59;6261483;28;20486;-93
2023/05/02 05:33:00;;;;;;;5.55;2.78;;;;;;;9.30;100.00;100974.06;6260949;28;20045;-93
2023/05/02 05:36:06;;;;;;;2.30;1.83;;;;;;;9.08;100.00;100983.22;6260644;28;20056;-92
2023/05/02 05:39:09;;;;;;;5.97;2.10;;;;;;;9.00;100.00;100981.16;6261235;28;20045;-91
2023/05/02 05:42:13;;;;;;;3.03;1.90;;;;;;;8.88;100.00;101000.00;6260204;28;20490;-92
2023/05/02 05:45:18;;;;;;;4.75;2.10;;;;;;;8.82;100.00;101008.16;6262076;28;20422;-92
2023/05/02 05:48:21;;;;;;;4.30;2.70;;;;;;;8.74;100.00;101018.94;6259305;28;20056;-92
2023/05/02 05:51:23;;;;;;;5.20;2.42;;;;;;;8.72;100.00;101025.97;6261909;28;20128;-91
2023/05/02 05:54:24;;;;;;;5.22;2.60;;;;;;;8.65;100.00;101034.22;6262795;28;20033;-91
2023/05/02 05:57:27;;;;;;;6.03;3.20;;;;;;;8.44;100.00;101038.94;6260818;28;20114;-91
2023/05/02 06:00:31;;;;;;;8.80;2.75;;;;;;;8.27;100.00;101048.50;6260569;28;20045;-90
2023/05/02 06:03:33;;;;;;;7.18;2.80;;;;;;;8.09;100.00;101060.75;6252550;28;20464;-90
2023/05/02 06:06:35;;;;;;;8.43;3.00;;;;;;;8.15;100.00;101077.63;6259297;28;20056;-89
2023/05/02 06:09:37;;;;;;;8.73;4.00;;;;;;;8.14;100.00;101078.53;6260075;28;20642;-89
2023/05/02 06:12:39;;;;;;;11.75;3.70;;;;;;;8.13;100.00;101082.88;6263099;28;20098;-89
2023/05/02 06:15:42;;;;;;;8.52;2.80;;;;;;;8.06;100.00;101096.22;6263484;28;20070;-90
2023/05/02 06:18:44;;;;;;;9.90;3.22;;;;;;;8.09;100.00;101101.19;6261682;28;20556;-87
2023/05/02 06:21:47;;;;;;;11.43;3.80;;;;;;;8.16;100.00;101112.78;6260053;28;20121;-87
2023/05/02 06:24:49;;;;;;;14.25;3.28;;;;;;;8.15;100.00;101104.25;6261529;28;20053;-87
2023/05/02 06:27:51;;;;;;;6.30;2.92;;;;;;;8.33;100.00;101116.94;6262325;28;20041;-87
2023/05/02 06:31:04;;;;;;;12.32;3.72;;;;;;;8.34;100.00;101114.25;6263546;28;20480;-87
2023/05/02 06:34:06;;;;;;;10.55;4.07;;;;;;;8.43;100.00;101114.69;6260889;28;20120;-87
2023/05/02 06:37:08;;;;;;;13.82;4.45;;;;;;;8.46;100.00;101122.22;6250602;28;20144;-86
2023/05/02 06:40:10;;;;;;;13.88;4.68;;;;;;;8.54;100.00;101120.81;6260935;28;20079;-86
2023/05/02 06:43:12;;;;;;;10.13;4.05;;;;;;;8.59;100.00;101134.28;6257428;28;20037;-86
2023/05/02 06:46:14;;;;;;;11.43;3.47;;;;;;;8.70;100.00;101136.22;6254260;28;20094;-86
2023/05/02 06:49:16;;;;;;;17.45;4.43;;;;;;;8.72;100.00;101141.28;6263069;28;20041;-87
2023/05/02 06:52:18;;;;;;;10.75;4.30;;;;;;;8.82;100.00;101135.47;6260814;28;20083;-87
2023/05/02 06:55:20;;;;;;;9.95;3.75;;;;;;;8.98;100.00;101137.91;6261608;28;20121;-87
2023/05/02 06:58:24;;;;;;;11.25;3.67;;;;;;;9.15;100.00;101147.19;6260653;28;20479;-86
2023/05/02 07:01:26;;;;;;;9.20;3.83;;;;;;;9.37;100.00;101159.59;6261329;28;20041;-87
2023/05/02 07:04:27;;;;;;;11.32;3.65;;;;;;;9.52;100.00;101144.03;6260062;28;20077;-87
2023/05/02 07:07:29;;;;;;;11.40;3.95;;;;;;;9.82;100.00;101154.13;6260783;28;20441;-88
2023/05/02 07:10:31;;;;;;;8.15;3.75;;;;;;;10.19;100.00;101162.03;6256764;28;20041;-87
2023/05/02 07:13:32;;;;;;;11.68;3.67;;;;;;;10.28;100.00;101171.78;6255256;28;20056;-87
2023/05/02 07:16:34;;;;;;;11.95;3.47;;;;;;;10.27;100.00;101178.69;6261481;28;20044;-88
2023/05/02 07:19:36;;;;;;;8.70;3.40;;;;;;;10.08;100.00;101178.25;6261285;28;20049;-87
2023/05/02 07:22:38;;;;;;;9.88;3.17;;;;;;;9.96;100.00;101186.81;6259735;28;20116;-88
2023/05/02 07:25:40;;;;;;;14.80;3.75;;;;;;;9.73;100.00;101199.50;6261383;28;20052;-87
2023/05/02 07:28:42;;;;;;;11.88;3.50;;;;;;;9.68;100.00;101196.38;6258471;28;20123;-88
2023/05/02 07:31:43;;;;;;;9.82;3.42;;;;;;;9.84;100.00;101196.22;6255321;28;20456;-87
2023/05/02 07:34:45;;;;;;;10.90;3.40;;;;;;;9.99;100.00;101212.50;6246683;28;20542;-89
2023/05/02 07:37:48;;;;;;;8.18;3.38;;;;;;;10.21;100.00;101214.47;6250639;28;20516;-88
2023/05/02 07:40:49;;;;;;;15.15;3.67;;;;;;;10.36;100.00;101218.69;6250957;28;20041;-88
2023/05/02 07:43:52;;;;;;;9.50;3.78;;;;;;;10.24;100.00;101212.53;6259623;28;20045;-87
2023/05/02 07:46:54;;;;;;;14.68;3.78;;;;;;;10.30;100.00;101211.31;6250661;28;20550;-89
2023/05/02 07:49:56;;;;;;;9.32;3.28;;;;;;;10.34;100.00;101220.53;6260641;28;20431;-88
2023/05/02 07:52:57;;;;;;;9.63;3.10;;;;;;;10.25;100.00;101221.13;6256323;28;20037;-88
2023/05/02 07:55:59;;;;;;;14.15;3.35;;;;;;;10.30;100.00;101216.50;6261599;28;20044;-91
2023/05/02 07:59:04;;;;;;;14.38;3.42;;;;;;;10.50;100.00;101222.91;6259375;28;20536;-89
2023/05/02 08:02:06;;;;;;;8.52;3.25;;;;;;;10.51;100.00;101230.59;6260644;28;20041;-89
2023/05/02 08:05:08;;;;;;;13.02;3.72;;;;;;;10.36;100.00;101241.97;6259886;28;20371;-89
2023/05/02 08:08:10;;;;;;;15.20;3.50;;;;;;;10.31;100.00;101241.44;6259122;28;20072;-89
2023/05/02 08:11:12;;;;;;;9.93;3.47;;;;;;;10.38;100.00;101240.09;6259278;28;20045;-89
2023/05/02 08:14:20;;;;;;;8.82;3.13;;;;;;;10.42;100.00;101243.31;6260369;28;20052;-89
2023/05/02 08:17:22;;;;;;;9.48;3.42;;;;;;;10.34;100.00;101257.59;6259604;28;20055;-89
2023/05/02 08:20:24;;;;;;;7.13;3.30;;;;;;;10.32;100.00;101256.88;6258042;28;20060;-89
2023/05/02 08:23:26;;;;;;;8.55;3.03;;;;;;;10.37;100.00;101263.50;6252790;28;20047;-89
2023/05/02 08:26:28;;;;;;;13.07;3.80;;;;;;;10.51;100.00;101274.59;6256201;28;20905;-90
2023/05/02 08:29:30;;;;;;;7.45;3.00;;;;;;;10.59;100.00;101270.69;6256818;28;20485;-89
2023/05/02 08:32:32;;;;;;;8.40;3.10;;;;;;;10.77;100.00;101282.38;6259054;28;20049;-90
2023/05/02 08:35:34;;;;;;;7.75;2.72;;;;;;;10.86;100.00;101279.16;6264000;28;20346;-90
2023/05/02 08:38:36;;;;;;;6.93;2.63;;;;;;;10.84;100.00;101290.56;6263302;28;20044;-91
2023/05/02 08:41:37;;;;;;;7.38;2.63;;;;;;;10.60;100.00;101287.84;6264577;28;20048;-90
2023/05/02 08:44:39;;;;;;;10.10;3.50;;;;;;;10.76;100.00;101301.44;6254595;28;20048;-88
2023/05/02 08:47:42;;;;;;;6.03;2.60;;;;;;;10.74;100.00;101293.75;6255530;28;20052;-90
2023/05/02 08:50:47;;;;;;;13.70;3.33;;;;;;;10.76;100.00;101302.25;6244042;28;20053;-91
2023/05/02 08:53:51;;;;;;;8.45;2.70;;;;;;;10.75;100.00;101310.94;6264264;28;20053;-90
2023/05/02 08:56:53;;;;;;;8.23;2.80;;;;;;;10.47;100.00;101319.72;6261906;28;20041;-90
2023/05/02 08:59:55;;;;;;;12.60;3.20;;;;;;;10.19;100.00;101323.25;6261750;28;20633;-90
2023/05/02 09:03:13;;;;;;;8.38;2.78;;;;;;;10.09;100.00;101329.97;6265283;28;20044;-90
2023/05/02 09:06:17;;;;;;;15.32;4.00;;;;;;;9.99;100.00;101337.47;6264329;28;20048;-90
2023/05/02 09:09:19;;;;;;;10.10;3.70;;;;;;;9.84;100.00;101349.59;6259695;28;20584;-89
2023/05/02 09:12:27;;;;;;;9.10;3.85;;;;;;;9.77;100.00;101357.84;6257091;28;20040;-90
2023/05/02 09:15:29;;;;;;;11.45;4.25;;;;;;;9.63;100.00;101361.28;6262743;28;20415;-90
2023/05/02 09:18:33;;;;;;;9.65;4.10;;;;;;;9.47;100.00;101366.56;6263899;28;20052;-89
2023/05/02 09:21:38;;;;;;;8.52;3.22;;;;;;;9.42;100.00;101369.41;6259327;28;20460;-90
2023/05/02 09:24:40;;;;;;;14.30;4.07;;;;;;;9.64;100.00;101368.94;6252001;28;20049;-90
2023/05/02 09:28:08;;;;;;;7.78;3.30;;;;;;;9.84;100.00;101377.22;6258683;28;20033;-90
2023/05/02 09:31:21;;;;;;;8.82;3.50;;;;;;;9.92;100.00;101375.00;6250248;28;20057;-90
2023/05/02 09:35:08;;;;;;;6.03;2.83;;;;;;;10.00;100.00;101380.50;6260196;28;20040;-90
2023/05/02 09:38:19;;;;;;;7.80;3.08;;;;;;;10.17;100.00;101378.63;6256861;28;20049;-91
2023/05/02 09:41:21;;;;;;;9.15;2.78;;;;;;;10.29;100.00;101377.88;6259161;28;20455;-90
2023/05/02 09:44:25;;;;;;;11.98;3.10;;;;;;;10.35;100.00;101377.47;6255532;28;20041;-92
2023/05/02 09:47:26;;;;;;;4.15;2.50;;;;;;;10.66;100.00;101371.13;6262406;28;20053;-91
2023/05/02 09:50:38;;;;;;;6.00;3.13;;;;;;;10.90;100.00;101399.75;6250821;28;20045;-91
2023/05/02 09:53:43;;;;;;;6.15;2.90;;;;;;;10.98;100.00;101387.13;6250566;28;20088;-92
2023/05/02 09:56:56;;;;;;;5.55;2.78;;;;;;;11.22;100.00;101386.41;6258927;28;20038;-92
2023/05/02 09:59:58;;;;;;;9.00;2.83;;;;;;;11.27;100.00;101396.47;6260219;28;20061;-92
2023/05/02 10:03:00;;;;;;;7.30;3.00;;;;;;;11.31;100.00;101403.09;6261866;28;20037;-93
2023/05/02 10:06:03;;;;;;;4.90;2.53;;;;;;;11.44;100.00;101409.09;6257654;28;20057;-92
2023/05/02 10:09:08;;;;;;;5.43;2.92;;;;;;;11.58;100.00;101401.22;6260960;28;20121;-92
2023/05/02 10:12:14;;;;;;;7.95;3.13;;;;;;;12.12;100.00;101409.59;6261437;28;20052;-92
2023/05/02 10:15:19;;;;;;;4.38;3.00;;;;;;;12.22;100.00;101416.63;6263106;28;20491;-92
2023/05/02 10:18:28;;;;;;;6.88;2.90;;;;;;;12.08;100.00;101434.94;6257576;28;20049;-93
2023/05/02 10:21:31;;;;;;;6.00;2.78;;;;;;;12.29;100.00;101424.78;6258054;28;20038;-92
2023/05/02 10:24:33;;;;;;;5.90;2.75;;;;;;;12.54;100.00;101433.41;6262015;28;20511;-91
2023/05/02 10:27:36;;;;;;;5.10;2.58;;;;;;;12.05;100.00;101435.19;6261395;28;20651;-93
2023/05/02 10:30:39;;;;;;;6.55;2.60;;;;;;;12.16;100.00;101430.03;6261362;28;20044;-91
2023/05/02 10:33:41;;;;;;;5.43;2.70;;;;;;;12.40;100.00;101435.25;6260701;28;20037;-92
2023/05/02 10:36:43;;;;;;;5.22;2.22;;;;;;;12.32;100.00;101436.72;6257889;28;20053;-93
2023/05/02 10:39:44;;;;;;;3.08;2.00;;;;;;;12.23;100.00;101444.25;6248561;28;20414;-93
2023/05/02 10:42:50;;;;;;;7.32;2.55;;;;;;;12.06;100.00;101442.00;6254319;28;20510;-91
2023/05/02 10:45:53;;;;;;;8.57;2.50;;;;;;;11.88;100.00;101432.94;6251392;28;20036;-93
2023/05/02 10:49:11;;;;;;;5.68;2.25;;;;;;;11.76;100.00;101438.00;6252247;28;20184;-93
2023/05/02 10:52:34;;;;;;;6.78;2.67;;;;;;;11.96;100.00;101431.44;6252558;28;20048;-93
2023/05/02 10:55:35;;;;;;;4.68;2.85;;;;;;;12.13;100.00;101440.66;6242269;28;20539;-92
2023/05/02 10:58:37;;;;;;;6.32;2.38;;;;;;;12.12;100.00;101444.16;6253884;28;20172;-93
2023/05/02 11:01:40;;;;;;;5.85;2.60;;;;;;;11.99;100.00;101457.19;6262363;28;20487;-94
2023/05/02 11:05:05;;;;;;;6.43;2.25;;;;;;;12.22;100.00;101452.13;6260870;28;20049;-92
2023/05/02 11:08:19;;;;;;;4.65;2.40;;;;;;;12.56;100.00;101460.94;6274581;28;20569;-93
2023/05/02 11:11:44;;;;;;;11.88;3.75;;;;;;;12.54;100.00;101461.97;6252646;28;20455;-92
2023/05/02 11:14:47;;;;;;;8.32;3.65;;;;;;;12.55;100.00;101461.88;6252948;28;20048;-93
2023/05/02 11:18:11;;;;;;;8.07;3.58;;;;;;;12.93;100.00;101450.44;6249349;28;20051;-93
2023/05/02 11:21:29;;;;;;;9.57;3.47;;;;;;;12.86;100.00;101460.47;6252643;28;20048;-92
2023/05/02 11:24:39;;;;;;;10.18;3.45;;;;;;;12.79;100.00;101461.03;6251611;28;20060;-94
2023/05/02 11:27:42;;;;;;;7.88;3.60;;;;;;;12.89;100.00;101452.47;6259259;28;20093;-92
2023/05/02 11:30:47;;;;;;;5.53;3.30;;;;;;;12.96;100.00;101464.97;6258855;28;20048;-93
2023/05/02 11:33:59;;;;;;;7.40;3.40;;;;;;;12.82;100.00;101471.19;6243434;28;20041;-94
2023/05/02 11:37:13;;;;;;;6.70;3.50;;;;;;;12.81;100.00;101457.38;6260916;28;20041;-89
2023/05/02 11:40:15;;;;;;;6.97;3.08;;;;;;;12.81;100.00;101472.97;6260504;28;20036;-92
2023/05/02 11:43:18;;;;;;;5.90;2.80;;;;;;;12.56;100.00;101471.31;6260726;28;20037;-91
2023/05/02 11:46:22;;;;;;;5.82;3.28;;;;;;;12.42;100.00;101482.72;6247485;28;20044;-93
2023/05/02 11:49:24;;;;;;;7.07;3.55;;;;;;;12.16;100.00;101484.53;6256834;28;20101;-93
2023/05/02 11:52:26;;;;;;;10.73;4.13;;;;;;;12.24;100.00;101474.44;6256313;28;20080;-93
2023/05/02 11:55:29;;;;;;;8.57;3.33;;;;;;;12.37;100.00;101479.63;6258656;28;20044;-93
2023/05/02 11:58:32;;;;;;;9.07;2.55;;;;;;;12.57;100.00;101473.00;6259164;28;20411;-93
2023/05/02 12:01:35;;;;;;;7.70;3.15;;;;;;;12.75;100.00;101481.22;6257562;28;20127;-93
2023/05/02 12:04:43;;;;;;;6.10;2.45;;;;;;;13.20;100.00;101477.94;6260254;28;20052;-92
2023/05/02 12:07:48;;;;;;;6.70;2.60;;;;;;;13.30;100.00;101484.13;6260295;28;20041;-92
2023/05/02 12:10:51;;;;;;;7.45;2.63;;;;;;;13.08;100.00;101490.06;6261821;28;20041;-92
2023/05/02 12:13:53;;;;;;;6.05;2.83;;;;;;;12.96;100.00;101484.00;6268452;28;20052;-92
2023/05/02 12:16:58;;;;;;;6.80;3.45;;;;;;;12.83;100.00;101485.84;6262713;28;20083;-94
2023/05/02 12:20:02;;;;;;;5.72;2.90;;;;;;;13.18;100.00;101493.63;6261294;28;20481;-93
2023/05/02 12:23:08;;;;;;;8.05;3.45;;;;;;;13.71;98.71;101488.81;6265201;28;20418;-93
2023/05/02 12:26:28;;;;;;;7.40;3.35;;;;;;;13.86;91.74;101489.38;6267176;28;20041;-93
2023/05/02 12:29:44;;;;;;;9.55;3.00;;;;;;;13.76;99.25;101488.44;6248201;28;20041;-92
2023/05/02 12:32:55;;;;;;;9.27;3.20;;;;;;;13.35;100.00;101490.63;6273252;28;20052;-93
2023/05/02 12:36:05;;;;;;;5.00;3.08;;;;;;;12.86;98.69;101489.03;6253015;28;20613;-91
2023/05/02 12:39:07;;;;;;;6.60;3.03;;;;;;;12.33;100.00;101503.31;6246365;28;20033;-92
2023/05/02 12:42:10;;;;;;;4.93;2.70;;;;;;;12.35;100.00;101494.47;6259367;28;20035;-92
2023/05/02 12:45:17;;;;;;;8.48;3.10;;;;;;;12.95;100.00;101508.34;6262767;28;20491;-91
2023/05/02 12:48:26;;;;;;;5.57;3.25;;;;;;;13.59;100.00;101510.56;6253120;28;20783;-91
2023/05/02 12:51:30;;;;;;;6.43;2.67;;;;;;;14.21;100.00;101520.50;6262868;28;20621;-91
2023/05/02 12:54:32;;;;;;;6.32;2.70;;;;;;;15.13;92.06;101501.84;6261768;28;20040;-91
2023/05/02 12:57:34;;;;;;;4.82;2.67;;;;;;;14.81;78.07;101513.13;6263909;28;20495;-90
2023/05/02 13:00:38;;;;;;;7.95;3.20;;;;;;;14.37;87.07;101522.69;6262773;28;20075;-91
2023/05/02 13:03:41;;;;;;;5.75;3.30;;;;;;;14.20;87.70;101536.22;6263238;28;20422;-91
2023/05/02 13:06:43;;;;;;;5.80;2.83;;;;;;;13.92;91.54;101530.56;6262852;28;20490;-91
2023/05/02 13:09:47;;;;;;;7.85;3.08;;;;;;;14.07;91.56;101536.34;6262264;28;20146;-91
2023/05/02 13:12:50;;;;;;;6.88;3.10;;;;;;;14.12;86.46;101536.81;6262751;28;20033;-91
2023/05/02 13:15:51;;;;;;;7.55;2.80;;;;;;;14.29;88.38;101551.13;6255346;28;20173;-91
2023/05/02 13:18:53;;;;;;;6.50;2.95;;;;;;;13.87;83.77;101535.28;6251172;28;20345;-91
2023/05/02 13:21:55;;;;;;;5.90;2.92;;;;;;;13.99;89.34;101541.31;6264956;28;20045;-91
2023/05/02 13:24:56;;;;;;;6.07;2.22;;;;;;;13.91;81.20;101544.53;6260295;28;20049;-90
2023/05/02 13:27:58;;;;;;;5.63;2.20;;;;;;;13.52;83.68;101541.41;6258076;28;20045;-92
2023/05/02 13:31:00;;;;;;;6.05;2.80;;;;;;;13.26;91.02;101551.09;6264122;28;20040;-92
2023/05/02 13:34:05;;;;;;;5.18;2.65;;;;;;;13.29;90.75;101552.66;6259092;28;20052;-91
2023/05/02 13:37:08;;;;;;;5.57;2.33;;;;;;;13.73;91.20;101545.91;6262238;28;20114;-91
2023/05/02 13:40:10;;;;;;;7.00;2.50;;;;;;;14.46;95.79;101544.59;6261793;28;20041;-90
2023/05/02 13:43:13;;;;;;;4.07;2.63;;;;;;;15.07;90.31;101557.13;6260004;28;20061;-91
2023/05/02 13:46:15;;;;;;;4.63;2.38;;;;;;;15.16;74.02;101552.94;6263232;28;20154;-91
2023/05/02 13:49:17;;;;;;;5.50;2.55;;;;;;;15.25;77.56;101567.81;6261234;28;20041;-91
2023/05/02 13:52:19;;;;;;;7.47;2.47;;;;;;;15.45;81.13;101556.59;6262918;28;20346;-91
2023/05/02 13:55:21;;;;;;;4.13;2.10;;;;;;;15.48;74.21;101561.53;6258792;28;20068;-91
2023/05/02 13:58:23;;;;;;;4.22;2.17;;;;;;;15.00;74.19;101559.38;6261899;28;20248;-91
2023/05/02 14:01:26;;;;;;;4.45;1.85;;;;;;;14.72;70.01;101565.19;6262186;28;20467;-92
2023/05/02 14:04:28;;;;;;;1.98;1.63;;;;;;;14.71;76.76;101576.53;6260456;28;20032;-91
2023/05/02 14:07:30;;;;;;;2.13;1.60;;;;;;;14.57;75.41;101562.00;6259615;28;20052;-92